sensor_id;sensor_type;location;lat;lon;timestamp;P1;durP1;ratioP1;P2;durP2;ratioP2
18596;SDS011;9428;50.950;6.912;2023-04-24T00:00:29;0.77;;;0.65;;
18596;SDS011;9428;50.950;6.912;2023-04-24T00:03:17;0.88;;;0.68;;
18596;SDS011;9428;50.950;6.912;2023-04-24T00:06:07;1.42;;;0.82;;
18596;SDS011;9428;50.950;6.912;2023-04-24T00:08:55;5.65;;;0.90;;
18596;SDS011;9428;50.950;6.912;2023-04-24T00:11:42;0.98;;;0.80;;
18596;SDS011;9428;50.950;6.912;2023-04-24T00:14:29;1.48;;;0.88;;
18596;SDS011;9428;50.950;6.912;2023-04-24T00:17:16;0.70;;;0.70;;
18596;SDS011;9428;50.950;6.912;2023-04-24T00:20:05;3.17;;;0.93;;
18596;SDS011;9428;50.950;6.912;2023-04-24T00:22:54;1.10;;;1.00;;
18596;SDS011;9428;50.950;6.912;2023-04-24T00:25:42;1.98;;;1.05;;
18596;SDS011;9428;50.950;6.912;2023-04-24T00:28:29;3.53;;;1.10;;
18596;SDS011;9428;50.950;6.912;2023-04-24T00:31:16;0.90;;;0.90;;
18596;SDS011;9428;50.950;6.912;2023-04-24T00:34:04;2.95;;;1.00;;
18596;SDS011;9428;50.950;6.912;2023-04-24T00:36:51;1.90;;;0.90;;
18596;SDS011;9428;50.950;6.912;2023-04-24T00:39:40;1.48;;;1.00;;
18596;SDS011;9428;50.950;6.912;2023-04-24T00:42:27;1.98;;;1.23;;
18596;SDS011;9428;50.950;6.912;2023-04-24T00:45:15;1.40;;;1.10;;
18596;SDS011;9428;50.950;6.912;2023-04-24T00:48:02;1.10;;;1.00;;
18596;SDS011;9428;50.950;6.912;2023-04-24T00:50:51;1.33;;;0.90;;
18596;SDS011;9428;50.950;6.912;2023-04-24T00:53:38;1.58;;;1.30;;
18596;SDS011;9428;50.950;6.912;2023-04-24T00:56:27;1.27;;;1.17;;
18596;SDS011;9428;50.950;6.912;2023-04-24T00:59:15;3.30;;;1.40;;
18596;SDS011;9428;50.950;6.912;2023-04-24T01:02:03;1.63;;;1.10;;
18596;SDS011;9428;50.950;6.912;2023-04-24T01:04:51;3.33;;;1.48;;
18596;SDS011;9428;50.950;6.912;2023-04-24T01:07:38;3.40;;;1.30;;
18596;SDS011;9428;50.950;6.912;2023-04-24T01:10:29;1.65;;;1.27;;
18596;SDS011;9428;50.950;6.912;2023-04-24T01:13:20;1.95;;;1.08;;
18596;SDS011;9428;50.950;6.912;2023-04-24T01:16:08;1.73;;;1.10;;
18596;SDS011;9428;50.950;6.912;2023-04-24T01:18:55;2.08;;;1.20;;
18596;SDS011;9428;50.950;6.912;2023-04-24T01:21:42;2.22;;;1.40;;
18596;SDS011;9428;50.950;6.912;2023-04-24T01:24:32;1.63;;;1.20;;
18596;SDS011;9428;50.950;6.912;2023-04-24T01:27:20;4.20;;;1.10;;
18596;SDS011;9428;50.950;6.912;2023-04-24T01:30:07;2.58;;;1.85;;
18596;SDS011;9428;50.950;6.912;2023-04-24T01:32:55;4.85;;;2.13;;
18596;SDS011;9428;50.950;6.912;2023-04-24T01:35:43;2.70;;;2.47;;
18596;SDS011;9428;50.950;6.912;2023-04-24T01:38:31;5.10;;;2.47;;
18596;SDS011;9428;50.950;6.912;2023-04-24T01:41:19;3.67;;;2.40;;
18596;SDS011;9428;50.950;6.912;2023-04-24T01:44:07;3.47;;;2.67;;
18596;SDS011;9428;50.950;6.912;2023-04-24T01:46:54;3.15;;;2.83;;
18596;SDS011;9428;50.950;6.912;2023-04-24T01:49:42;5.22;;;2.80;;
18596;SDS011;9428;50.950;6.912;2023-04-24T01:52:29;5.20;;;2.80;;
18596;SDS011;9428;50.950;6.912;2023-04-24T01:55:18;3.42;;;2.92;;
18596;SDS011;9428;50.950;6.912;2023-04-24T01:58:07;4.40;;;3.15;;
18596;SDS011;9428;50.950;6.912;2023-04-24T02:00:55;5.93;;;3.03;;
18596;SDS011;9428;50.950;6.912;2023-04-24T02:03:43;4.85;;;3.28;;
18596;SDS011;9428;50.950;6.912;2023-04-24T02:06:30;5.45;;;3.40;;
18596;SDS011;9428;50.950;6.912;2023-04-24T02:09:17;4.75;;;3.13;;
18596;SDS011;9428;50.950;6.912;2023-04-24T02:12:04;5.15;;;3.50;;
18596;SDS011;9428;50.950;6.912;2023-04-24T02:14:53;6.45;;;3.70;;
18596;SDS011;9428;50.950;6.912;2023-04-24T02:17:40;5.53;;;3.63;;
18596;SDS011;9428;50.950;6.912;2023-04-24T02:20:27;8.57;;;3.50;;
18596;SDS011;9428;50.950;6.912;2023-04-24T02:23:15;6.97;;;4.10;;
18596;SDS011;9428;50.950;6.912;2023-04-24T02:26:02;5.75;;;3.90;;
18596;SDS011;9428;50.950;6.912;2023-04-24T02:28:49;8.20;;;4.03;;
18596;SDS011;9428;50.950;6.912;2023-04-24T02:31:38;7.32;;;4.32;;
18596;SDS011;9428;50.950;6.912;2023-04-24T02:34:25;6.03;;;4.15;;
18596;SDS011;9428;50.950;6.912;2023-04-24T02:37:12;4.50;;;3.70;;
18596;SDS011;9428;50.950;6.912;2023-04-24T02:39:59;5.38;;;3.70;;
18596;SDS011;9428;50.950;6.912;2023-04-24T02:42:46;5.57;;;4.07;;
18596;SDS011;9428;50.950;6.912;2023-04-24T02:45:34;5.45;;;4.07;;
18596;SDS011;9428;50.950;6.912;2023-04-24T02:48:22;6.95;;;4.38;;
18596;SDS011;9428;50.950;6.912;2023-04-24T02:51:10;5.85;;;3.58;;
18596;SDS011;9428;50.950;6.912;2023-04-24T02:53:57;5.10;;;3.72;;
18596;SDS011;9428;50.950;6.912;2023-04-24T02:56:44;6.03;;;4.43;;
18596;SDS011;9428;50.950;6.912;2023-04-24T02:59:31;6.70;;;4.55;;
18596;SDS011;9428;50.950;6.912;2023-04-24T03:02:18;6.60;;;4.20;;
18596;SDS011;9428;50.950;6.912;2023-04-24T03:05:07;5.32;;;4.35;;
18596;SDS011;9428;50.950;6.912;2023-04-24T03:07:58;7.97;;;4.65;;
18596;SDS011;9428;50.950;6.912;2023-04-24T03:10:45;7.60;;;4.75;;
18596;SDS011;9428;50.950;6.912;2023-04-24T03:13:32;6.60;;;4.90;;
18596;SDS011;9428;50.950;6.912;2023-04-24T03:16:20;8.82;;;4.75;;
18596;SDS011;9428;50.950;6.912;2023-04-24T03:19:07;6.90;;;4.80;;
18596;SDS011;9428;50.950;6.912;2023-04-24T03:21:56;11.43;;;4.78;;
18596;SDS011;9428;50.950;6.912;2023-04-24T03:24:43;7.25;;;4.53;;
18596;SDS011;9428;50.950;6.912;2023-04-24T03:27:30;7.00;;;5.28;;
18596;SDS011;9428;50.950;6.912;2023-04-24T03:30:17;8.45;;;5.05;;
18596;SDS011;9428;50.950;6.912;2023-04-24T03:33:04;10.85;;;5.75;;
18596;SDS011;9428;50.950;6.912;2023-04-24T03:35:52;8.18;;;5.47;;
18596;SDS011;9428;50.950;6.912;2023-04-24T03:38:41;11.68;;;6.53;;
18596;SDS011;9428;50.950;6.912;2023-04-24T03:41:28;8.90;;;5.30;;
18596;SDS011;9428;50.950;6.912;2023-04-24T03:44:15;8.02;;;5.05;;
18596;SDS011;9428;50.950;6.912;2023-04-24T03:47:02;10.27;;;5.63;;
18596;SDS011;9428;50.950;6.912;2023-04-24T03:49:50;7.72;;;5.43;;
18596;SDS011;9428;50.950;6.912;2023-04-24T03:52:37;8.50;;;5.45;;
18596;SDS011;9428;50.950;6.912;2023-04-24T03:55:26;7.78;;;5.00;;
18596;SDS011;9428;50.950;6.912;2023-04-24T03:58:13;8.23;;;5.75;;
18596;SDS011;9428;50.950;6.912;2023-04-24T04:01:00;8.65;;;5.40;;
18596;SDS011;9428;50.950;6.912;2023-04-24T04:03:48;8.35;;;5.13;;
18596;SDS011;9428;50.950;6.912;2023-04-24T04:06:35;8.55;;;5.07;;
18596;SDS011;9428;50.950;6.912;2023-04-24T04:09:22;7.57;;;5.63;;
18596;SDS011;9428;50.950;6.912;2023-04-24T04:12:11;8.10;;;5.00;;
18596;SDS011;9428;50.950;6.912;2023-04-24T04:14:59;9.85;;;5.70;;
18596;SDS011;9428;50.950;6.912;2023-04-24T04:17:46;8.30;;;5.35;;
18596;SDS011;9428;50.950;6.912;2023-04-24T04:20:33;8.82;;;5.03;;
18596;SDS011;9428;50.950;6.912;2023-04-24T04:23:20;7.57;;;4.57;;
18596;SDS011;9428;50.950;6.912;2023-04-24T04:26:08;8.35;;;5.15;;
18596;SDS011;9428;50.950;6.912;2023-04-24T04:28:56;7.55;;;5.18;;
18596;SDS011;9428;50.950;6.912;2023-04-24T04:31:43;8.50;;;5.18;;
18596;SDS011;9428;50.950;6.912;2023-04-24T04:34:31;7.63;;;5.47;;
18596;SDS011;9428;50.950;6.912;2023-04-24T04:37:18;8.63;;;5.13;;
18596;SDS011;9428;50.950;6.912;2023-04-24T04:40:06;8.13;;;4.90;;
18596;SDS011;9428;50.950;6.912;2023-04-24T04:42:56;5.65;;;4.25;;
18596;SDS011;9428;50.950;6.912;2023-04-24T04:45:45;6.53;;;4.30;;
18596;SDS011;9428;50.950;6.912;2023-04-24T04:48:33;6.50;;;4.82;;
18596;SDS011;9428;50.950;6.912;2023-04-24T04:51:20;8.88;;;4.65;;
18596;SDS011;9428;50.950;6.912;2023-04-24T04:54:08;5.68;;;4.30;;
18596;SDS011;9428;50.950;6.912;2023-04-24T04:56:55;7.60;;;4.65;;
18596;SDS011;9428;50.950;6.912;2023-04-24T04:59:42;8.82;;;4.60;;
18596;SDS011;9428;50.950;6.912;2023-04-24T05:02:31;8.77;;;4.80;;
18596;SDS011;9428;50.950;6.912;2023-04-24T05:05:18;7.55;;;4.47;;
18596;SDS011;9428;50.950;6.912;2023-04-24T05:08:06;7.85;;;5.13;;
18596;SDS011;9428;50.950;6.912;2023-04-24T05:10:54;8.05;;;4.55;;
18596;SDS011;9428;50.950;6.912;2023-04-24T05:13:41;7.68;;;4.47;;
18596;SDS011;9428;50.950;6.912;2023-04-24T05:16:28;8.52;;;4.93;;
18596;SDS011;9428;50.950;6.912;2023-04-24T05:19:17;7.13;;;4.18;;
18596;SDS011;9428;50.950;6.912;2023-04-24T05:22:04;10.48;;;5.20;;
18596;SDS011;9428;50.950;6.912;2023-04-24T05:24:52;4.60;;;3.85;;
18596;SDS011;9428;50.950;6.912;2023-04-24T05:27:39;5.68;;;4.50;;
18596;SDS011;9428;50.950;6.912;2023-04-24T05:30:27;6.53;;;4.25;;
18596;SDS011;9428;50.950;6.912;2023-04-24T05:33:14;7.18;;;3.95;;
18596;SDS011;9428;50.950;6.912;2023-04-24T05:36:03;8.32;;;4.60;;
18596;SDS011;9428;50.950;6.912;2023-04-24T05:38:51;7.55;;;4.60;;
18596;SDS011;9428;50.950;6.912;2023-04-24T05:41:38;6.45;;;4.63;;
18596;SDS011;9428;50.950;6.912;2023-04-24T05:44:25;9.20;;;4.97;;
18596;SDS011;9428;50.950;6.912;2023-04-24T05:47:12;5.60;;;4.25;;
18596;SDS011;9428;50.950;6.912;2023-04-24T05:49:59;9.32;;;4.25;;
18596;SDS011;9428;50.950;6.912;2023-04-24T05:52:48;7.05;;;5.53;;
18596;SDS011;9428;50.950;6.912;2023-04-24T05:55:35;6.13;;;4.65;;
18596;SDS011;9428;50.950;6.912;2023-04-24T05:58:23;12.13;;;4.78;;
18596;SDS011;9428;50.950;6.912;2023-04-24T06:01:10;4.85;;;4.10;;
18596;SDS011;9428;50.950;6.912;2023-04-24T06:03:57;5.38;;;3.90;;
18596;SDS011;9428;50.950;6.912;2023-04-24T06:06:44;5.07;;;3.40;;
18596;SDS011;9428;50.950;6.912;2023-04-24T06:09:33;7.30;;;3.75;;
18596;SDS011;9428;50.950;6.912;2023-04-24T06:12:20;4.35;;;3.20;;
18596;SDS011;9428;50.950;6.912;2023-04-24T06:15:08;4.72;;;2.47;;
18596;SDS011;9428;50.950;6.912;2023-04-24T06:17:55;3.42;;;2.10;;
18596;SDS011;9428;50.950;6.912;2023-04-24T06:20:43;2.28;;;1.70;;
18596;SDS011;9428;50.950;6.912;2023-04-24T06:23:30;5.22;;;2.22;;
18596;SDS011;9428;50.950;6.912;2023-04-24T06:26:19;5.25;;;2.40;;
18596;SDS011;9428;50.950;6.912;2023-04-24T06:29:07;2.50;;;2.25;;
18596;SDS011;9428;50.950;6.912;2023-04-24T06:31:54;2.60;;;2.00;;
18596;SDS011;9428;50.950;6.912;2023-04-24T06:34:41;2.13;;;1.80;;
18596;SDS011;9428;50.950;6.912;2023-04-24T06:37:29;1.85;;;1.70;;
18596;SDS011;9428;50.950;6.912;2023-04-24T06:40:17;2.45;;;1.55;;
18596;SDS011;9428;50.950;6.912;2023-04-24T06:43:06;2.30;;;1.85;;
18596;SDS011;9428;50.950;6.912;2023-04-24T06:45:53;3.05;;;1.38;;
18596;SDS011;9428;50.950;6.912;2023-04-24T06:48:40;1.90;;;1.50;;
18596;SDS011;9428;50.950;6.912;2023-04-24T06:51:28;2.20;;;1.67;;
18596;SDS011;9428;50.950;6.912;2023-04-24T06:54:15;2.58;;;1.60;;
18596;SDS011;9428;50.950;6.912;2023-04-24T06:57:03;2.22;;;1.77;;
18596;SDS011;9428;50.950;6.912;2023-04-24T06:59:51;3.35;;;1.90;;
18596;SDS011;9428;50.950;6.912;2023-04-24T07:02:38;15.02;;;1.85;;
18596;SDS011;9428;50.950;6.912;2023-04-24T07:05:26;2.58;;;1.98;;
18596;SDS011;9428;50.950;6.912;2023-04-24T07:08:13;2.78;;;1.90;;
18596;SDS011;9428;50.950;6.912;2023-04-24T07:11:02;4.93;;;2.15;;
18596;SDS011;9428;50.950;6.912;2023-04-24T07:13:50;2.33;;;1.90;;
18596;SDS011;9428;50.950;6.912;2023-04-24T07:16:38;2.47;;;1.95;;
18596;SDS011;9428;50.950;6.912;2023-04-24T07:19:25;4.60;;;2.13;;
18596;SDS011;9428;50.950;6.912;2023-04-24T07:22:13;3.35;;;2.10;;
18596;SDS011;9428;50.950;6.912;2023-04-24T07:25:02;2.38;;;2.00;;
18596;SDS011;9428;50.950;6.912;2023-04-24T07:27:50;2.50;;;2.20;;
18596;SDS011;9428;50.950;6.912;2023-04-24T07:30:37;2.97;;;2.00;;
18596;SDS011;9428;50.950;6.912;2023-04-24T07:33:26;2.42;;;1.70;;
18596;SDS011;9428;50.950;6.912;2023-04-24T07:36:13;2.03;;;1.77;;
18596;SDS011;9428;50.950;6.912;2023-04-24T07:39:04;1.80;;;1.50;;
18596;SDS011;9428;50.950;6.912;2023-04-24T07:41:51;2.67;;;1.73;;
18596;SDS011;9428;50.950;6.912;2023-04-24T07:44:38;2.77;;;1.40;;
18596;SDS011;9428;50.950;6.912;2023-04-24T07:47:26;1.83;;;1.37;;
18596;SDS011;9428;50.950;6.912;2023-04-24T07:50:14;2.57;;;1.43;;
18596;SDS011;9428;50.950;6.912;2023-04-24T07:53:01;3.10;;;1.13;;
18596;SDS011;9428;50.950;6.912;2023-04-24T07:55:49;3.53;;;1.30;;
18596;SDS011;9428;50.950;6.912;2023-04-24T07:58:36;3.37;;;1.40;;
18596;SDS011;9428;50.950;6.912;2023-04-24T08:01:23;1.50;;;1.00;;
18596;SDS011;9428;50.950;6.912;2023-04-24T08:04:11;5.53;;;1.50;;
18596;SDS011;9428;50.950;6.912;2023-04-24T08:06:59;1.53;;;1.30;;
18596;SDS011;9428;50.950;6.912;2023-04-24T08:09:46;2.03;;;1.17;;
18596;SDS011;9428;50.950;6.912;2023-04-24T08:12:33;2.93;;;1.40;;
18596;SDS011;9428;50.950;6.912;2023-04-24T08:15:21;2.93;;;1.43;;
18596;SDS011;9428;50.950;6.912;2023-04-24T08:18:08;1.73;;;1.20;;
18596;SDS011;9428;50.950;6.912;2023-04-24T08:20:58;1.70;;;1.20;;
18596;SDS011;9428;50.950;6.912;2023-04-24T08:23:48;1.83;;;1.37;;
18596;SDS011;9428;50.950;6.912;2023-04-24T08:26:35;2.13;;;1.23;;
18596;SDS011;9428;50.950;6.912;2023-04-24T08:29:22;1.50;;;1.27;;
18596;SDS011;9428;50.950;6.912;2023-04-24T08:32:09;3.80;;;1.37;;
18596;SDS011;9428;50.950;6.912;2023-04-24T08:34:57;3.50;;;1.40;;
18596;SDS011;9428;50.950;6.912;2023-04-24T08:37:44;2.80;;;1.30;;
18596;SDS011;9428;50.950;6.912;2023-04-24T08:40:33;2.93;;;1.70;;
18596;SDS011;9428;50.950;6.912;2023-04-24T08:43:21;1.87;;;1.60;;
18596;SDS011;9428;50.950;6.912;2023-04-24T08:46:08;1.70;;;1.60;;
18596;SDS011;9428;50.950;6.912;2023-04-24T08:48:57;3.80;;;1.57;;
18596;SDS011;9428;50.950;6.912;2023-04-24T08:51:45;3.57;;;2.20;;
18596;SDS011;9428;50.950;6.912;2023-04-24T08:54:33;3.10;;;2.27;;
18596;SDS011;9428;50.950;6.912;2023-04-24T08:57:22;3.53;;;2.50;;
18596;SDS011;9428;50.950;6.912;2023-04-24T09:00:12;4.50;;;2.20;;
18596;SDS011;9428;50.950;6.912;2023-04-24T09:03:00;3.40;;;2.30;;
18596;SDS011;9428;50.950;6.912;2023-04-24T09:05:50;3.00;;;2.70;;
18596;SDS011;9428;50.950;6.912;2023-04-24T09:08:41;4.70;;;2.93;;
18596;SDS011;9428;50.950;6.912;2023-04-24T09:11:30;6.33;;;2.80;;
18596;SDS011;9428;50.950;6.912;2023-04-24T09:14:19;3.77;;;2.83;;
18596;SDS011;9428;50.950;6.912;2023-04-24T09:17:06;7.03;;;3.30;;
18596;SDS011;9428;50.950;6.912;2023-04-24T09:19:53;5.03;;;3.50;;
18596;SDS011;9428;50.950;6.912;2023-04-24T09:22:41;6.30;;;4.00;;
18596;SDS011;9428;50.950;6.912;2023-04-24T09:25:30;9.17;;;4.33;;
18596;SDS011;9428;50.950;6.912;2023-04-24T09:28:19;6.27;;;4.10;;
18596;SDS011;9428;50.950;6.912;2023-04-24T09:31:13;7.07;;;4.37;;
18596;SDS011;9428;50.950;6.912;2023-04-24T09:34:04;11.00;;;5.00;;
18596;SDS011;9428;50.950;6.912;2023-04-24T09:36:52;10.00;;;5.47;;
18596;SDS011;9428;50.950;6.912;2023-04-24T09:39:40;8.87;;;4.60;;
18596;SDS011;9428;50.950;6.912;2023-04-24T09:42:28;7.77;;;4.90;;
18596;SDS011;9428;50.950;6.912;2023-04-24T09:45:17;6.20;;;4.53;;
18596;SDS011;9428;50.950;6.912;2023-04-24T09:48:07;10.55;;;5.38;;
18596;SDS011;9428;50.950;6.912;2023-04-24T09:50:56;10.23;;;4.53;;
18596;SDS011;9428;50.950;6.912;2023-04-24T09:53:45;8.37;;;5.50;;
18596;SDS011;9428;50.950;6.912;2023-04-24T09:56:33;11.40;;;5.37;;
18596;SDS011;9428;50.950;6.912;2023-04-24T09:59:20;14.63;;;5.97;;
18596;SDS011;9428;50.950;6.912;2023-04-24T10:02:16;12.77;;;5.65;;
18596;SDS011;9428;50.950;6.912;2023-04-24T10:05:05;9.23;;;5.00;;
18596;SDS011;9428;50.950;6.912;2023-04-24T10:07:55;8.33;;;4.63;;
18596;SDS011;9428;50.950;6.912;2023-04-24T10:10:44;9.63;;;4.80;;
18596;SDS011;9428;50.950;6.912;2023-04-24T10:13:32;6.90;;;4.45;;
18596;SDS011;9428;50.950;6.912;2023-04-24T10:16:20;5.23;;;3.83;;
18596;SDS011;9428;50.950;6.912;2023-04-24T10:19:09;9.73;;;3.85;;
18596;SDS011;9428;50.950;6.912;2023-04-24T10:21:59;9.00;;;3.72;;
18596;SDS011;9428;50.950;6.912;2023-04-24T10:24:48;7.07;;;3.17;;
18596;SDS011;9428;50.950;6.912;2023-04-24T10:27:36;8.27;;;3.83;;
18596;SDS011;9428;50.950;6.912;2023-04-24T10:30:26;7.97;;;3.80;;
18596;SDS011;9428;50.950;6.912;2023-04-24T10:33:14;8.50;;;3.95;;
18596;SDS011;9428;50.950;6.912;2023-04-24T10:36:01;9.13;;;3.63;;
18596;SDS011;9428;50.950;6.912;2023-04-24T10:38:50;9.60;;;3.67;;
18596;SDS011;9428;50.950;6.912;2023-04-24T10:41:41;6.15;;;3.53;;
18596;SDS011;9428;50.950;6.912;2023-04-24T10:44:35;4.45;;;2.58;;
18596;SDS011;9428;50.950;6.912;2023-04-24T10:47:23;5.20;;;3.13;;
18596;SDS011;9428;50.950;6.912;2023-04-24T10:50:10;7.30;;;3.17;;
18596;SDS011;9428;50.950;6.912;2023-04-24T10:53:05;6.03;;;2.75;;
18596;SDS011;9428;50.950;6.912;2023-04-24T10:55:58;12.40;;;3.17;;
18596;SDS011;9428;50.950;6.912;2023-04-24T10:58:49;9.18;;;3.83;;
18596;SDS011;9428;50.950;6.912;2023-04-24T11:01:38;12.65;;;3.22;;
18596;SDS011;9428;50.950;6.912;2023-04-24T11:04:31;7.38;;;3.10;;
18596;SDS011;9428;50.950;6.912;2023-04-24T11:07:20;3.58;;;2.63;;
18596;SDS011;9428;50.950;6.912;2023-04-24T11:10:07;9.38;;;3.40;;
18596;SDS011;9428;50.950;6.912;2023-04-24T11:12:56;11.27;;;3.40;;
18596;SDS011;9428;50.950;6.912;2023-04-24T11:15:43;7.13;;;3.53;;
18596;SDS011;9428;50.950;6.912;2023-04-24T11:18:36;8.43;;;3.55;;
18596;SDS011;9428;50.950;6.912;2023-04-24T11:21:24;8.82;;;3.22;;
18596;SDS011;9428;50.950;6.912;2023-04-24T11:24:21;7.43;;;3.30;;
18596;SDS011;9428;50.950;6.912;2023-04-24T11:27:16;9.93;;;3.67;;
18596;SDS011;9428;50.950;6.912;2023-04-24T11:30:07;7.95;;;3.53;;
18596;SDS011;9428;50.950;6.912;2023-04-24T11:32:55;9.85;;;3.88;;
18596;SDS011;9428;50.950;6.912;2023-04-24T11:35:49;9.60;;;3.38;;
18596;SDS011;9428;50.950;6.912;2023-04-24T11:38:38;9.60;;;3.60;;
18596;SDS011;9428;50.950;6.912;2023-04-24T11:41:26;6.55;;;3.42;;
18596;SDS011;9428;50.950;6.912;2023-04-24T11:44:13;11.25;;;4.15;;
18596;SDS011;9428;50.950;6.912;2023-04-24T11:47:06;10.05;;;4.70;;
18596;SDS011;9428;50.950;6.912;2023-04-24T11:49:54;11.35;;;4.43;;
18596;SDS011;9428;50.950;6.912;2023-04-24T11:52:42;13.38;;;4.50;;
18596;SDS011;9428;50.950;6.912;2023-04-24T11:55:30;8.38;;;3.97;;
18596;SDS011;9428;50.950;6.912;2023-04-24T11:58:20;9.13;;;4.15;;
18596;SDS011;9428;50.950;6.912;2023-04-24T12:01:08;7.72;;;4.35;;
18596;SDS011;9428;50.950;6.912;2023-04-24T12:04:00;9.00;;;4.03;;
18596;SDS011;9428;50.950;6.912;2023-04-24T12:06:59;10.60;;;4.05;;
18596;SDS011;9428;50.950;6.912;2023-04-24T12:09:47;9.90;;;4.28;;
18596;SDS011;9428;50.950;6.912;2023-04-24T12:12:36;8.32;;;3.60;;
18596;SDS011;9428;50.950;6.912;2023-04-24T12:15:23;10.25;;;3.90;;
18596;SDS011;9428;50.950;6.912;2023-04-24T12:18:11;8.10;;;3.60;;
18596;SDS011;9428;50.950;6.912;2023-04-24T12:21:16;7.47;;;3.72;;
18596;SDS011;9428;50.950;6.912;2023-04-24T12:24:05;9.82;;;3.95;;
18596;SDS011;9428;50.950;6.912;2023-04-24T12:26:53;7.15;;;4.30;;
18596;SDS011;9428;50.950;6.912;2023-04-24T12:29:50;11.25;;;4.63;;
18596;SDS011;9428;50.950;6.912;2023-04-24T12:32:41;9.45;;;4.13;;
18596;SDS011;9428;50.950;6.912;2023-04-24T12:35:30;7.03;;;4.15;;
18596;SDS011;9428;50.950;6.912;2023-04-24T12:38:21;12.75;;;4.63;;
18596;SDS011;9428;50.950;6.912;2023-04-24T12:41:11;10.98;;;3.75;;
18596;SDS011;9428;50.950;6.912;2023-04-24T12:43:59;7.75;;;3.70;;
18596;SDS011;9428;50.950;6.912;2023-04-24T12:46:46;10.43;;;4.10;;
18596;SDS011;9428;50.950;6.912;2023-04-24T12:49:33;7.05;;;3.85;;
18596;SDS011;9428;50.950;6.912;2023-04-24T12:52:21;9.02;;;3.97;;
18596;SDS011;9428;50.950;6.912;2023-04-24T12:55:10;15.98;;;4.25;;
18596;SDS011;9428;50.950;6.912;2023-04-24T12:57:58;13.40;;;3.88;;
18596;SDS011;9428;50.950;6.912;2023-04-24T13:00:45;9.73;;;3.53;;
18596;SDS011;9428;50.950;6.912;2023-04-24T13:03:33;8.73;;;3.90;;
18596;SDS011;9428;50.950;6.912;2023-04-24T13:06:20;11.93;;;4.53;;
18596;SDS011;9428;50.950;6.912;2023-04-24T13:09:07;8.68;;;4.00;;
18596;SDS011;9428;50.950;6.912;2023-04-24T13:11:56;7.20;;;3.60;;
18596;SDS011;9428;50.950;6.912;2023-04-24T13:14:43;12.07;;;3.90;;
18596;SDS011;9428;50.950;6.912;2023-04-24T13:17:31;10.52;;;4.38;;
18596;SDS011;9428;50.950;6.912;2023-04-24T13:20:18;7.68;;;4.07;;
18596;SDS011;9428;50.950;6.912;2023-04-24T13:23:06;12.43;;;4.45;;
18596;SDS011;9428;50.950;6.912;2023-04-24T13:25:53;10.27;;;4.22;;
18596;SDS011;9428;50.950;6.912;2023-04-24T13:28:43;13.95;;;4.57;;
18596;SDS011;9428;50.950;6.912;2023-04-24T13:31:31;8.52;;;4.53;;
18596;SDS011;9428;50.950;6.912;2023-04-24T13:34:18;9.57;;;4.22;;
18596;SDS011;9428;50.950;6.912;2023-04-24T13:37:05;7.82;;;3.47;;
18596;SDS011;9428;50.950;6.912;2023-04-24T13:39:53;8.68;;;4.35;;
18596;SDS011;9428;50.950;6.912;2023-04-24T13:42:40;11.30;;;3.85;;
18596;SDS011;9428;50.950;6.912;2023-04-24T13:45:29;10.60;;;4.05;;
18596;SDS011;9428;50.950;6.912;2023-04-24T13:48:16;8.77;;;3.58;;
18596;SDS011;9428;50.950;6.912;2023-04-24T13:51:03;10.98;;;3.58;;
18596;SDS011;9428;50.950;6.912;2023-04-24T13:53:50;10.82;;;3.55;;
18596;SDS011;9428;50.950;6.912;2023-04-24T13:56:38;10.65;;;3.72;;
18596;SDS011;9428;50.950;6.912;2023-04-24T13:59:25;9.07;;;3.67;;
18596;SDS011;9428;50.950;6.912;2023-04-24T14:02:14;10.68;;;3.47;;
18596;SDS011;9428;50.950;6.912;2023-04-24T14:05:01;8.30;;;3.20;;
18596;SDS011;9428;50.950;6.912;2023-04-24T14:07:50;6.72;;;3.28;;
18596;SDS011;9428;50.950;6.912;2023-04-24T14:10:37;8.00;;;3.10;;
18596;SDS011;9428;50.950;6.912;2023-04-24T14:13:24;6.47;;;3.20;;
18596;SDS011;9428;50.950;6.912;2023-04-24T14:16:12;9.05;;;3.70;;
18596;SDS011;9428;50.950;6.912;2023-04-24T14:19:00;8.18;;;3.90;;
18596;SDS011;9428;50.950;6.912;2023-04-24T14:21:48;8.18;;;3.83;;
18596;SDS011;9428;50.950;6.912;2023-04-24T14:24:35;7.93;;;3.30;;
18596;SDS011;9428;50.950;6.912;2023-04-24T14:27:22;8.75;;;3.60;;
18596;SDS011;9428;50.950;6.912;2023-04-24T14:30:10;8.35;;;3.33;;
18596;SDS011;9428;50.950;6.912;2023-04-24T14:32:58;5.60;;;2.83;;
18596;SDS011;9428;50.950;6.912;2023-04-24T14:35:46;5.60;;;3.45;;
18596;SDS011;9428;50.950;6.912;2023-04-24T14:38:33;6.05;;;3.70;;
18596;SDS011;9428;50.950;6.912;2023-04-24T14:41:21;7.05;;;3.92;;
18596;SDS011;9428;50.950;6.912;2023-04-24T14:44:08;5.45;;;3.47;;
18596;SDS011;9428;50.950;6.912;2023-04-24T14:46:55;6.80;;;3.75;;
18596;SDS011;9428;50.950;6.912;2023-04-24T14:49:43;6.82;;;3.92;;
18596;SDS011;9428;50.950;6.912;2023-04-24T14:52:31;9.50;;;3.72;;
18596;SDS011;9428;50.950;6.912;2023-04-24T14:55:18;7.40;;;3.30;;
18596;SDS011;9428;50.950;6.912;2023-04-24T14:58:06;8.43;;;3.80;;
18596;SDS011;9428;50.950;6.912;2023-04-24T15:00:53;5.47;;;3.55;;
18596;SDS011;9428;50.950;6.912;2023-04-24T15:03:40;5.70;;;3.35;;
18596;SDS011;9428;50.950;6.912;2023-04-24T15:06:27;5.80;;;3.15;;
18596;SDS011;9428;50.950;6.912;2023-04-24T15:09:18;8.07;;;2.90;;
18596;SDS011;9428;50.950;6.912;2023-04-24T15:12:05;6.38;;;2.60;;
18596;SDS011;9428;50.950;6.912;2023-04-24T15:14:53;6.30;;;2.78;;
18596;SDS011;9428;50.950;6.912;2023-04-24T15:17:40;7.28;;;3.00;;
18596;SDS011;9428;50.950;6.912;2023-04-24T15:20:27;12.00;;;3.55;;
18596;SDS011;9428;50.950;6.912;2023-04-24T15:23:14;6.53;;;2.80;;
18596;SDS011;9428;50.950;6.912;2023-04-24T15:26:03;7.90;;;3.47;;
18596;SDS011;9428;50.950;6.912;2023-04-24T15:28:50;9.27;;;3.83;;
18596;SDS011;9428;50.950;6.912;2023-04-24T15:31:38;7.18;;;3.22;;
18596;SDS011;9428;50.950;6.912;2023-04-24T15:34:25;5.72;;;2.72;;
18596;SDS011;9428;50.950;6.912;2023-04-24T15:37:13;8.13;;;3.17;;
18596;SDS011;9428;50.950;6.912;2023-04-24T15:40:01;9.88;;;3.83;;
18596;SDS011;9428;50.950;6.912;2023-04-24T15:42:51;6.50;;;3.75;;
18596;SDS011;9428;50.950;6.912;2023-04-24T15:45:38;4.88;;;3.38;;
18596;SDS011;9428;50.950;6.912;2023-04-24T15:48:26;9.27;;;3.50;;
18596;SDS011;9428;50.950;6.912;2023-04-24T15:51:14;7.90;;;3.25;;
18596;SDS011;9428;50.950;6.912;2023-04-24T15:54:01;7.85;;;3.05;;
18596;SDS011;9428;50.950;6.912;2023-04-24T15:56:49;7.53;;;3.25;;
18596;SDS011;9428;50.950;6.912;2023-04-24T15:59:38;8.23;;;2.80;;
18596;SDS011;9428;50.950;6.912;2023-04-24T16:02:25;11.48;;;4.20;;
18596;SDS011;9428;50.950;6.912;2023-04-24T16:05:13;5.85;;;3.13;;
18596;SDS011;9428;50.950;6.912;2023-04-24T16:08:00;5.03;;;3.22;;
18596;SDS011;9428;50.950;6.912;2023-04-24T16:10:47;6.43;;;3.17;;
18596;SDS011;9428;50.950;6.912;2023-04-24T16:13:35;7.30;;;3.03;;
18596;SDS011;9428;50.950;6.912;2023-04-24T16:16:23;9.05;;;3.38;;
18596;SDS011;9428;50.950;6.912;2023-04-24T16:19:10;5.63;;;3.30;;
18596;SDS011;9428;50.950;6.912;2023-04-24T16:21:58;7.57;;;3.30;;
18596;SDS011;9428;50.950;6.912;2023-04-24T16:24:45;10.43;;;3.13;;
18596;SDS011;9428;50.950;6.912;2023-04-24T16:27:32;5.40;;;2.95;;
18596;SDS011;9428;50.950;6.912;2023-04-24T16:30:19;6.47;;;2.55;;
18596;SDS011;9428;50.950;6.912;2023-04-24T16:33:08;6.88;;;2.53;;
18596;SDS011;9428;50.950;6.912;2023-04-24T16:35:56;14.48;;;3.80;;
18596;SDS011;9428;50.950;6.912;2023-04-24T16:38:43;6.78;;;2.50;;
18596;SDS011;9428;50.950;6.912;2023-04-24T16:41:30;8.68;;;2.90;;
18596;SDS011;9428;50.950;6.912;2023-04-24T16:44:17;4.85;;;2.78;;
18596;SDS011;9428;50.950;6.912;2023-04-24T16:47:05;6.43;;;2.30;;
18596;SDS011;9428;50.950;6.912;2023-04-24T16:49:54;5.35;;;2.72;;
18596;SDS011;9428;50.950;6.912;2023-04-24T16:52:42;5.88;;;2.78;;
18596;SDS011;9428;50.950;6.912;2023-04-24T16:55:29;4.35;;;2.75;;
18596;SDS011;9428;50.950;6.912;2023-04-24T16:58:17;4.57;;;2.10;;
18596;SDS011;9428;50.950;6.912;2023-04-24T17:01:04;3.00;;;2.70;;
18596;SDS011;9428;50.950;6.912;2023-04-24T17:03:51;4.05;;;2.58;;
18596;SDS011;9428;50.950;6.912;2023-04-24T17:06:40;7.10;;;2.78;;